Terminal Aerodrome Forecast
Issued by NWS

Home | Current Version | Previous Version | Text Only | Print | Product List | Glossary On
Versions: 1 2 3 4 5 6 7 8 9 10 11 12
676
FTUS43 KTOP 062320
TAFMHK
TAF
KMHK 062320Z 0700/0724 23009KT P6SM FEW250
     FM071300 28008KT P6SM BKN100
     FM071700 30014G22KT P6SM SCT100
     FM071800 30019G30KT P6SM SCT250=

USA.gov is the U.S. government's official web portal to all federal, state and local government web resources and services.